Lowell Highlands, MA

10 Minute Time Series

02-18-2020 05:20 PM

TimeTempHumidityDewpointBarometerWindSpeedWindGustWind DirRain
12:10 AM26.6°F64%16.1°F30.457 inHg0 mph0 mph N/A (N/A)0.00 in
12:20 AM26.5°F63%15.6°F30.459 inHg1 mph2 mph45° (NE)0.00 in
12:30 AM26.4°F63%15.5°F30.464 inHg1 mph2 mph45° (NE)0.00 in
12:40 AM26.5°F64%16.0°F30.467 inHg0 mph1 mph N/A (N/A)0.00 in
12:50 AM26.4°F62%15.2°F30.474 inHg0 mph1 mph N/A (N/A)0.00 in
01:00 AM26.4°F62%15.2°F30.480 inHg0 mph1 mph N/A (N/A)0.00 in
01:10 AM26.4°F61%14.8°F30.483 inHg0 mph0 mph N/A (N/A)0.00 in
01:20 AM26.4°F62%15.2°F30.487 inHg0 mph0 mph N/A (N/A)0.00 in
01:30 AM26.4°F61%14.8°F30.493 inHg0 mph0 mph N/A (N/A)0.00 in
01:40 AM26.4°F63%15.5°F30.500 inHg0 mph2 mph N/A (N/A)0.00 in
01:50 AM26.4°F64%15.9°F30.497 inHg1 mph2 mph45° (NE)0.00 in
02:00 AM26.4°F65%16.3°F30.494 inHg1 mph3 mph45° (NE)0.00 in
02:10 AM26.4°F67%17.0°F30.492 inHg1 mph3 mph22° (NNE)0.00 in
02:20 AM26.5°F67%17.0°F30.488 inHg2 mph3 mph22° (NNE)0.00 in
02:30 AM26.6°F64%16.1°F30.486 inHg1 mph3 mph22° (NNE)0.00 in
02:40 AM26.6°F63%15.7°F30.487 inHg1 mph3 mph22° (NNE)0.00 in
02:50 AM26.6°F64%16.1°F30.492 inHg1 mph2 mph22° (NNE)0.00 in
03:00 AM26.5°F62%15.3°F30.482 inHg2 mph4 mph22° (NNE)0.00 in
03:10 AM26.5°F62%15.3°F30.480 inHg2 mph4 mph22° (NNE)0.00 in
03:20 AM26.3°F61%14.7°F30.475 inHg2 mph5 mph22° (NNE)0.00 in
03:30 AM26.2°F61%14.6°F30.467 inHg3 mph6 mph22° (NNE)0.00 in
03:40 AM26.1°F61%14.5°F30.466 inHg2 mph5 mph45° (NE)0.00 in
03:50 AM26.0°F62%14.8°F30.466 inHg2 mph5 mph0° (N)0.00 in
04:00 AM26.0°F62%14.8°F30.467 inHg2 mph6 mph22° (NNE)0.00 in
04:10 AM26.0°F62%14.8°F30.465 inHg2 mph4 mph22° (NNE)0.00 in
04:20 AM26.0°F62%14.8°F30.465 inHg2 mph4 mph45° (NE)0.00 in
04:30 AM26.0°F62%14.8°F30.469 inHg2 mph4 mph45° (NE)0.00 in
04:40 AM26.1°F63%15.3°F30.466 inHg1 mph3 mph45° (NE)0.00 in
04:50 AM26.1°F64%15.6°F30.468 inHg2 mph4 mph45° (NE)0.00 in
05:00 AM26.1°F65%16.0°F30.464 inHg1 mph3 mph45° (NE)0.00 in
05:10 AM26.1°F65%16.0°F30.456 inHg1 mph5 mph22° (NNE)0.00 in
05:20 AM26.1°F66%16.3°F30.452 inHg1 mph3 mph68° (ENE)0.00 in
05:30 AM26.2°F66%16.4°F30.454 inHg1 mph5 mph45° (NE)0.00 in
05:40 AM26.2°F66%16.4°F30.453 inHg1 mph4 mph22° (NNE)0.00 in
05:50 AM26.2°F67%16.8°F30.450 inHg2 mph5 mph45° (NE)0.00 in
06:00 AM26.3°F67%16.9°F30.454 inHg2 mph5 mph68° (ENE)0.00 in
06:10 AM26.4°F67%17.0°F30.449 inHg2 mph5 mph45° (NE)0.00 in
06:20 AM26.4°F68%17.3°F30.448 inHg2 mph4 mph22° (NNE)0.00 in
06:30 AM26.4°F68%17.3°F30.459 inHg1 mph3 mph22° (NNE)0.00 in
06:40 AM26.4°F68%17.3°F30.462 inHg1 mph3 mph22° (NNE)0.00 in
06:50 AM26.4°F69%17.6°F30.461 inHg1 mph4 mph45° (NE)0.00 in
07:00 AM26.5°F69%17.7°F30.463 inHg2 mph4 mph22° (NNE)0.00 in
07:10 AM26.6°F69%17.8°F30.468 inHg1 mph4 mph22° (NNE)0.00 in
07:20 AM26.8°F69%18.0°F30.469 inHg2 mph4 mph22° (NNE)0.00 in
07:30 AM26.9°F69%18.1°F30.471 inHg2 mph4 mph22° (NNE)0.00 in
07:40 AM27.1°F69%18.3°F30.476 inHg2 mph4 mph22° (NNE)0.00 in
07:50 AM27.4°F69%18.6°F30.468 inHg2 mph4 mph22° (NNE)0.00 in
08:00 AM27.4°F69%18.6°F30.461 inHg3 mph7 mph45° (NE)0.00 in
08:10 AM27.5°F69%18.7°F30.446 inHg3 mph6 mph22° (NNE)0.00 in
08:20 AM27.6°F69%18.8°F30.447 inHg2 mph6 mph22° (NNE)0.00 in
08:30 AM27.9°F70%19.4°F30.455 inHg1 mph3 mph22° (NNE)0.00 in
08:40 AM28.1°F70%19.6°F30.453 inHg1 mph2 mph22° (NNE)0.00 in
08:50 AM28.4°F70%19.9°F30.448 inHg1 mph3 mph68° (ENE)0.00 in
09:00 AM28.8°F70%20.3°F30.438 inHg1 mph4 mph45° (NE)0.00 in
09:10 AM29.2°F70%20.7°F30.430 inHg2 mph6 mph45° (NE)0.00 in
09:20 AM29.4°F70%20.8°F30.421 inHg3 mph5 mph22° (NNE)0.00 in
09:30 AM29.9°F71%21.7°F30.418 inHg2 mph5 mph68° (ENE)0.00 in
09:40 AM30.3°F71%22.0°F30.415 inHg2 mph5 mph68° (ENE)0.00 in
09:50 AM30.5°F71%22.2°F30.424 inHg2 mph4 mph22° (NNE)0.00 in
10:00 AM30.6°F72%22.7°F30.413 inHg2 mph4 mph45° (NE)0.00 in
10:10 AM31.0°F72%23.1°F30.410 inHg2 mph4 mph68° (ENE)0.00 in
10:20 AM31.4°F73%23.8°F30.403 inHg2 mph4 mph45° (NE)0.00 in
10:30 AM31.7°F73%24.1°F30.398 inHg2 mph5 mph22° (NNE)0.00 in
10:40 AM32.0°F73%24.3°F30.396 inHg2 mph4 mph45° (NE)0.00 in
10:50 AM32.2°F74%24.9°F30.384 inHg2 mph5 mph22° (NNE)0.00 in
11:00 AM32.3°F74%25.0°F30.380 inHg2 mph4 mph45° (NE)0.00 in
11:10 AM32.6°F75%25.6°F30.371 inHg1 mph3 mph45° (NE)0.00 in
11:20 AM33.0°F76%26.3°F30.366 inHg1 mph3 mph0° (N)0.00 in
11:30 AM33.6°F76%26.9°F30.365 inHg1 mph5 mph112° (ESE)0.00 in
11:40 AM35.0°F78%28.8°F30.356 inHg3 mph11 mph135° (SE)0.00 in
11:50 AM36.5°F77%30.0°F30.346 inHg5 mph10 mph158° (SSE)0.00 in
12:00 PM36.8°F78%30.6°F30.335 inHg4 mph11 mph135° (SE)0.00 in
12:10 PM36.2°F81%30.9°F30.332 inHg5 mph12 mph135° (SE)0.00 in
12:20 PM35.2°F85%31.2°F30.318 inHg4 mph10 mph112° (ESE)0.01 in
12:30 PM34.7°F87%31.2°F30.307 inHg3 mph7 mph135° (SE)0.01 in
12:40 PM34.4°F88%31.2°F30.300 inHg2 mph6 mph135° (SE)0.00 in
12:50 PM34.3°F89%31.4°F30.291 inHg2 mph4 mph135° (SE)0.00 in
01:00 PM34.2°F90%31.6°F30.282 inHg2 mph7 mph135° (SE)0.01 in
01:10 PM34.2°F91%31.9°F30.269 inHg3 mph7 mph112° (ESE)0.00 in
01:20 PM34.5°F92%32.4°F30.259 inHg2 mph5 mph112° (ESE)0.00 in
01:30 PM34.6°F92%32.5°F30.250 inHg3 mph8 mph90° (E)0.01 in
01:40 PM34.7°F92%32.6°F30.238 inHg2 mph7 mph112° (ESE)0.00 in
01:50 PM34.9°F92%32.8°F30.234 inHg1 mph5 mph135° (SE)0.00 in
02:00 PM35.0°F92%32.9°F30.226 inHg2 mph7 mph135° (SE)0.00 in
02:10 PM34.9°F92%32.8°F30.214 inHg4 mph10 mph112° (ESE)0.00 in
02:20 PM34.7°F92%32.6°F30.209 inHg4 mph10 mph135° (SE)0.00 in
02:30 PM34.4°F92%32.3°F30.202 inHg5 mph12 mph135° (SE)0.01 in
02:40 PM34.3°F92%32.2°F30.197 inHg3 mph9 mph112° (ESE)0.01 in
02:50 PM34.3°F93%32.5°F30.193 inHg3 mph6 mph112° (ESE)0.00 in
03:00 PM34.4°F93%32.6°F30.189 inHg3 mph6 mph180° (S)0.00 in
03:10 PM34.6°F93%32.8°F30.191 inHg2 mph5 mph135° (SE)0.00 in
03:20 PM34.8°F93%33.0°F30.178 inHg4 mph9 mph135° (SE)0.00 in
03:30 PM34.9°F93%33.1°F30.166 inHg3 mph7 mph135° (SE)0.00 in
03:40 PM35.0°F93%33.2°F30.159 inHg4 mph9 mph135° (SE)0.00 in
03:50 PM35.1°F93%33.3°F30.154 inHg4 mph11 mph135° (SE)0.00 in
04:00 PM35.3°F93%33.5°F30.156 inHg4 mph8 mph135° (SE)0.02 in
04:10 PM35.4°F93%33.6°F30.149 inHg4 mph10 mph135° (SE)0.00 in
04:20 PM35.4°F93%33.6°F30.136 inHg3 mph7 mph135° (SE)0.00 in
04:30 PM35.4°F93%33.6°F30.133 inHg3 mph9 mph135° (SE)0.01 in
04:40 PM35.4°F93%33.6°F30.120 inHg3 mph7 mph135° (SE)0.01 in
04:50 PM35.5°F94%33.9°F30.109 inHg3 mph9 mph135° (SE)0.00 in
05:00 PM35.5°F94%33.9°F30.097 inHg3 mph7 mph112° (ESE)0.02 in
05:10 PM35.5°F94%33.9°F30.098 inHg2 mph9 mph112° (ESE)0.02 in
05:20 PM35.6°F94%34.0°F30.094 inHg2 mph5 mph135° (SE)0.01 in